Valley Village, CA (91617)

11:15 PM PDT on April 25, 2017 (GMT -0700)
Valley Village, CA | | Change Station

Elev 650 ft 34.17 °N, 118.40 °W | Updated 29 seconds ago

Clear
Clear
66.1 °F
Feels Like 66.1 °F
N
5.0
Wind Variable Wind from East

Today
High -- | Low -- °F
--% Chance of Precip.
Yesterday
High -- | Low -- °F
Precip. -- in
Pressure 29.87 in
Visibility 10.0 miles
Clouds Clear
Dew Point 41 °F
Humidity 40%
Rainfall 0.00 in
Snow Depth Not available.
6:10 AM 7:33 PM
Waning Crescent, 0% visible
METAR KBUR 260553Z 32012G21KT 10SM CLR 19/02 A2990 RMK AO2 SLP114 T01940022 10233 20194 50007
Pressure 29.87 in
Visibility 10.0 miles
Clouds Clear
Dew Point 41 °F
Humidity 40%
Rainfall 0.00 in
Snow Depth Not available.
6:10 AM 7:33 PM
Waning Crescent, 0% visible
METAR KBUR 260553Z 32012G21KT 10SM CLR 19/02 A2990 RMK AO2 SLP114 T01940022 10233 20194 50007

Get Severe Weather Alerts

Thanks for signing up!

Be on the lookout for a verification email in your inbox.

You'll start receiving the daily forecast at 8 AM.

×

10-Day Weather Forecast

Almanac

Astronomy

Apr. 25, 2017 Rise Set
Actual Time
Civil Twilight
Nautical Twilight
Astronomical Twilight
Moon
Length of Visible Light
Length of Day
Tomorrow will be .
, % of the Moon is Illuminated

Today's Extremes

State Highs State Lows

Community

WunderPhotos

WunderBlog® & News

Nearby

Air Quality

  Air Quality AQ Index Pollutant
Not available.

Snow Depth

Station Depth Elevation

Earthquake Activity

City Distance Mag. Time & Date
Minimum magnitude displayed is 2.5.

Coastal Water Temperatures

Place Temperature

Stations

Nearby Weather Stations

Station Location Temp. Windchill Dew Point Humidity Wind Precip. Elev Updated Type
                   

Watches & Warnings

There are currently no watches in effect.